Time;durP1;ratioP1;P1;durP2;ratioP2;P2;SDS_P1;SDS_P2;PMS_P1;PMS_P2;Temp;Humidity;BMP_temperature;BMP_pressure;BME280_temperature;BME280_humidity;BME280_pressure;Samples;Min_cycle;Max_cycle;Signal;HPM_P1;HPM_P2
2022/01/06 00:01:46;;;;;;;5.12;1.20;;;;;;;3.32;68.78;99648.63;5589844;31;34651;-71
2022/01/06 00:04:49;;;;;;;5.70;1.20;;;;;;;3.34;68.96;99649.31;5589868;31;33928;-71
2022/01/06 00:07:52;;;;;;;7.85;1.20;;;;;;;3.28;69.38;99651.69;5589736;31;34429;-71
2022/01/06 00:10:55;;;;;;;4.87;1.10;;;;;;;3.29;69.01;99650.72;5589835;31;34766;-71
2022/01/06 00:14:08;;;;;;;3.33;1.40;;;;;;;3.23;69.35;99649.47;5588846;31;35326;-70
2022/01/06 00:17:25;;;;;;;3.35;1.27;;;;;;;3.22;69.21;99657.47;5589648;31;35184;-70
2022/01/06 00:23:51;;;;;;;4.07;1.12;;;;;;;3.15;69.20;99662.44;5589561;31;33958;-71
2022/01/06 00:26:54;;;;;;;3.30;1.48;;;;;;;3.17;70.20;99671.00;5589548;31;33947;-70
2022/01/06 00:29:56;;;;;;;5.62;1.35;;;;;;;3.13;70.02;99661.75;5589947;31;35152;-71
2022/01/06 00:32:59;;;;;;;2.42;1.10;;;;;;;3.15;70.21;99666.88;5589195;31;33977;-71
2022/01/06 00:36:02;;;;;;;4.28;1.30;;;;;;;3.11;70.45;99674.16;5589557;31;33895;-71
2022/01/06 00:39:07;;;;;;;2.58;0.93;;;;;;;3.08;70.31;99666.59;5589357;31;33934;-71
2022/01/06 00:42:10;;;;;;;6.20;1.37;;;;;;;3.08;70.37;99671.00;5589297;31;33968;-71
2022/01/06 00:45:12;;;;;;;2.78;1.30;;;;;;;3.10;70.68;99663.84;5589673;31;34822;-71
2022/01/06 00:48:15;;;;;;;4.53;1.20;;;;;;;3.02;70.60;99656.63;5588614;31;35212;-70
2022/01/06 00:51:18;;;;;;;2.83;1.20;;;;;;;3.01;70.73;99645.31;5589321;31;34014;-70
2022/01/06 00:54:21;;;;;;;3.55;1.00;;;;;;;3.02;70.98;99647.00;5588430;31;33940;-71
2022/01/06 00:57:23;;;;;;;6.00;1.20;;;;;;;3.05;71.13;99624.91;5589583;31;35174;-71
2022/01/06 01:00:29;;;;;;;4.37;1.30;;;;;;;2.94;71.69;99622.44;5589225;31;34032;-71
2022/01/06 01:03:32;;;;;;;5.28;1.23;;;;;;;2.94;71.82;99610.19;5589485;31;34649;-71
2022/01/06 01:06:35;;;;;;;3.08;1.10;;;;;;;2.95;71.74;99598.72;5589094;31;34710;-70
2022/01/06 01:09:37;;;;;;;5.53;1.95;;;;;;;2.94;71.06;99604.13;5588282;31;33869;-70
2022/01/06 01:12:46;;;;;;;3.95;1.23;;;;;;;2.94;71.36;99604.94;5589170;31;33979;-70
2022/01/06 01:15:52;;;;;;;4.72;1.35;;;;;;;2.99;70.57;99604.53;5588019;31;34773;-71
2022/01/06 01:18:57;;;;;;;3.83;1.05;;;;;;;2.98;70.37;99590.59;5588057;31;34757;-71
2022/01/06 01:21:59;;;;;;;6.18;1.10;;;;;;;3.08;69.25;99606.31;5588664;31;33986;-70
2022/01/06 01:25:03;;;;;;;4.10;1.30;;;;;;;3.21;68.81;99612.09;5588809;31;33936;-70
2022/01/06 01:28:05;;;;;;;4.30;1.20;;;;;;;3.20;69.48;99612.22;5588781;31;34605;-71
2022/01/06 01:34:27;;;;;;;3.10;1.08;;;;;;;3.22;69.46;99611.13;5588570;31;34107;-71
2022/01/06 01:37:31;;;;;;;3.78;1.40;;;;;;;3.16;68.70;99622.16;5588487;31;33957;-70
2022/01/06 01:40:34;;;;;;;3.87;1.10;;;;;;;3.15;69.34;99630.97;5588479;31;35204;-71
2022/01/06 01:43:38;;;;;;;3.55;1.20;;;;;;;3.18;69.28;99646.44;5588439;31;33958;-71
2022/01/06 01:46:45;;;;;;;3.70;1.60;;;;;;;3.09;69.57;99639.41;5588309;31;34553;-70
2022/01/06 01:49:55;;;;;;;3.25;1.30;;;;;;;3.08;70.23;99650.84;5588359;31;34467;-70
2022/01/06 01:52:58;;;;;;;7.18;1.20;;;;;;;3.09;70.56;99639.41;5587577;31;34021;-71
2022/01/06 01:56:05;;;;;;;2.90;1.27;;;;;;;3.05;70.60;99630.97;5587618;31;34112;-70
2022/01/06 01:59:08;;;;;;;3.05;1.23;;;;;;;3.01;70.99;99619.13;5587722;31;34597;-71
2022/01/06 02:02:10;;;;;;;3.95;1.33;;;;;;;3.05;70.99;99611.81;5588066;31;33885;-70
2022/01/06 02:05:14;;;;;;;3.50;1.30;;;;;;;2.96;71.94;99621.34;5587354;31;33979;-70
2022/01/06 02:08:16;;;;;;;4.55;1.33;;;;;;;2.94;71.70;99622.44;5587528;31;33988;-70
2022/01/06 02:11:19;;;;;;;2.40;1.10;;;;;;;3.01;71.47;99621.75;5587979;31;34690;-70
2022/01/06 02:14:25;;;;;;;7.03;1.33;;;;;;;3.08;71.24;99624.66;5587889;31;34135;-71
2022/01/06 02:17:28;;;;;;;5.62;1.45;;;;;;;3.00;72.38;99630.56;5590262;31;34113;-71
2022/01/06 02:20:31;;;;;;;2.03;1.30;;;;;;;2.92;71.80;99638.28;5590746;31;34044;-70
2022/01/06 02:23:34;;;;;;;3.60;1.40;;;;;;;2.89;71.59;99638.59;5591022;31;33993;-71
2022/01/06 02:26:36;;;;;;;6.68;1.40;;;;;;;3.01;71.82;99639.25;5590589;31;34152;-71
2022/01/06 02:29:39;;;;;;;2.85;1.17;;;;;;;2.96;71.74;99644.91;5589972;31;33426;-71
2022/01/06 02:32:43;;;;;;;3.20;1.33;;;;;;;2.95;71.96;99640.63;5590685;31;34064;-70
2022/01/06 02:35:47;;;;;;;5.47;1.42;;;;;;;3.01;71.62;99634.03;5582500;31;261125;-71
2022/01/06 02:38:49;;;;;;;3.92;1.45;;;;;;;3.01;71.86;99613.88;5590448;31;33872;-71
2022/01/06 02:41:52;;;;;;;3.85;0.82;;;;;;;2.97;72.17;99595.97;5590819;31;34016;-71
2022/01/06 02:44:55;;;;;;;5.70;1.02;;;;;;;2.89;72.30;99588.81;5590560;31;33885;-71
2022/01/06 02:48:00;;;;;;;3.58;1.30;;;;;;;2.93;71.65;99590.19;5590671;31;33410;-71
2022/01/06 02:51:03;;;;;;;4.75;1.35;;;;;;;3.00;71.95;99598.31;5590432;31;34232;-70
2022/01/06 02:54:05;;;;;;;3.50;1.20;;;;;;;3.04;71.17;99590.03;5590449;31;35192;-71
2022/01/06 02:57:09;;;;;;;4.68;0.93;;;;;;;3.01;71.25;99599.97;5590438;31;35243;-70
2022/01/06 03:00:15;;;;;;;2.95;1.00;;;;;;;3.08;70.96;99597.63;5590510;31;33980;-71
2022/01/06 03:03:18;;;;;;;2.40;1.10;;;;;;;3.13;70.00;99622.44;5590627;31;33990;-72
2022/01/06 03:06:21;;;;;;;3.95;1.10;;;;;;;3.09;70.30;99623.69;5576579;31;33985;-70
2022/01/06 03:09:35;;;;;;;1.65;0.80;;;;;;;3.12;69.90;99648.78;5590267;31;33976;-71
2022/01/06 03:12:41;;;;;;;4.12;1.00;;;;;;;3.12;70.34;99657.47;5590398;31;34006;-71
2022/01/06 03:15:44;;;;;;;4.80;1.00;;;;;;;3.16;70.54;99671.94;5590315;31;33904;-70
2022/01/06 03:18:47;;;;;;;7.00;0.93;;;;;;;3.14;70.25;99670.44;5590227;31;35410;-70
2022/01/06 03:21:49;;;;;;;3.92;1.35;;;;;;;3.15;70.11;99678.16;5589432;31;34252;-71
2022/01/06 03:24:52;;;;;;;1.80;1.10;;;;;;;3.14;70.87;99681.75;5590258;31;35330;-72
2022/01/06 03:27:55;;;;;;;2.25;1.33;;;;;;;3.01;71.67;99700.34;5589112;31;35211;-71
2022/01/06 03:30:58;;;;;;;5.80;1.25;;;;;;;2.98;72.28;99694.56;5589376;31;34639;-70
2022/01/06 03:34:01;;;;;;;3.28;1.10;;;;;;;2.84;73.00;99690.56;5590381;31;33941;-71
2022/01/06 03:37:05;;;;;;;2.33;1.15;;;;;;;2.79;73.82;99677.03;5590046;31;33988;-71
2022/01/06 03:40:09;;;;;;;6.25;1.67;;;;;;;2.75;74.40;99686.13;5589185;31;33951;-70
2022/01/06 03:43:12;;;;;;;3.47;1.17;;;;;;;2.77;74.33;99694.66;5589966;31;35307;-70
2022/01/06 03:46:15;;;;;;;4.53;1.40;;;;;;;2.79;74.35;99682.28;5590392;31;34016;-71
2022/01/06 03:49:19;;;;;;;4.62;1.42;;;;;;;2.71;74.74;99681.28;5590251;31;34155;-71
2022/01/06 03:52:21;;;;;;;3.92;1.60;;;;;;;2.72;74.86;99685.53;5589987;31;34350;-71
2022/01/06 03:55:24;;;;;;;5.45;1.40;;;;;;;2.64;76.23;99694.09;5589182;31;34641;-71
2022/01/06 03:58:27;;;;;;;3.17;1.37;;;;;;;2.64;76.29;99696.72;5589919;31;33898;-72
2022/01/06 04:01:29;;;;;;;3.70;1.20;;;;;;;2.57;76.32;99691.16;5589794;31;34198;-72
2022/01/06 04:04:33;;;;;;;6.37;1.40;;;;;;;2.61;76.36;99689.13;5590199;31;33951;-70
2022/01/06 04:07:37;;;;;;;2.85;1.40;;;;;;;2.54;77.58;99690.63;5589814;31;34095;-71
2022/01/06 04:10:40;;;;;;;4.43;1.40;;;;;;;2.52;76.98;99682.88;5589797;31;33908;-70
2022/01/06 04:13:42;;;;;;;8.27;1.50;;;;;;;2.50;77.00;99676.97;5589778;31;34081;-71
2022/01/06 04:16:45;;;;;;;3.35;1.37;;;;;;;2.56;76.92;99683.47;5589691;31;34008;-71
2022/01/06 04:19:48;;;;;;;4.90;1.67;;;;;;;2.57;76.98;99687.72;5589613;31;34206;-71
2022/01/06 04:22:51;;;;;;;6.47;1.42;;;;;;;2.60;76.27;99683.06;5589512;31;33885;-71
2022/01/06 04:25:58;;;;;;;6.28;1.45;;;;;;;2.58;77.01;99678.91;5589670;31;34336;-70
2022/01/06 04:29:00;;;;;;;3.17;1.02;;;;;;;2.67;76.64;99679.88;5589497;31;33076;-70
2022/01/06 04:32:03;;;;;;;4.10;1.42;;;;;;;2.52;77.51;99682.88;5589566;31;33929;-71
2022/01/06 04:35:07;;;;;;;2.67;1.10;;;;;;;2.56;76.70;99686.91;5589165;31;34054;-71
2022/01/06 04:38:10;;;;;;;3.80;1.12;;;;;;;2.61;76.89;99695.16;5589021;31;35203;-70
2022/01/06 04:41:12;;;;;;;4.53;1.23;;;;;;;2.68;76.66;99695.47;5588765;31;33988;-72
2022/01/06 04:44:15;;;;;;;8.48;1.90;;;;;;;2.67;76.44;99708.69;5588863;31;35296;-71
2022/01/06 04:47:18;;;;;;;4.07;1.73;;;;;;;2.72;76.59;99717.81;5589427;31;34070;-70
2022/01/06 04:50:21;;;;;;;3.65;1.37;;;;;;;2.65;76.66;99727.19;5588479;31;34022;-70
2022/01/06 04:53:23;;;;;;;4.57;1.33;;;;;;;2.71;76.57;99733.69;5589362;31;33942;-70
2022/01/06 04:56:26;;;;;;;5.68;1.77;;;;;;;2.61;77.04;99737.06;5588638;31;34043;-70
2022/01/06 04:59:29;;;;;;;5.40;1.58;;;;;;;2.60;nan;99732.81;5588467;31;34261;-70
2022/01/06 05:02:31;;;;;;;3.42;1.50;;;;;;;2.54;78.12;99740.34;5589074;31;34029;-70
2022/01/06 05:05:34;;;;;;;2.87;1.15;;;;;;;2.61;78.10;99757.22;5589162;31;33843;-70
2022/01/06 05:08:37;;;;;;;3.83;1.17;;;;;;;2.54;77.99;99762.13;5589184;31;34044;-70
2022/01/06 05:11:39;;;;;;;5.30;1.80;;;;;;;2.45;78.98;99773.41;5589044;31;34593;-70
2022/01/06 05:14:42;;;;;;;4.30;1.05;;;;;;;2.52;79.05;99771.06;5589024;31;34009;-71
2022/01/06 05:17:45;;;;;;;6.85;1.52;;;;;;;2.55;78.69;99779.50;5588242;31;34685;-70
2022/01/06 05:20:48;;;;;;;3.25;1.50;;;;;;;2.44;79.62;99778.75;5589004;31;34492;-70
2022/01/06 05:23:51;;;;;;;3.97;1.37;;;;;;;2.42;79.57;99785.94;5589032;31;34630;-70
2022/01/06 05:26:55;;;;;;;4.05;1.60;;;;;;;2.40;80.12;99783.44;5589032;31;34631;-70
2022/01/06 05:29:58;;;;;;;3.87;1.40;;;;;;;2.36;79.78;99787.28;5589034;31;33570;-72
2022/01/06 05:33:01;;;;;;;2.60;1.23;;;;;;;2.37;80.02;99799.38;5588664;31;33980;-70
2022/01/06 05:36:04;;;;;;;4.82;1.67;;;;;;;2.29;80.64;99793.97;5588527;31;35224;-70
2022/01/06 05:39:07;;;;;;;4.35;1.30;;;;;;;2.30;80.91;99794.81;5587566;31;34135;-70
2022/01/06 05:42:13;;;;;;;2.60;1.00;;;;;;;2.35;80.70;99795.25;5588461;31;33853;-71
2022/01/06 05:45:16;;;;;;;3.33;1.30;;;;;;;2.35;80.38;99790.00;5587625;31;34576;-70
2022/01/06 05:48:20;;;;;;;7.45;1.60;;;;;;;2.38;79.49;99797.59;5588619;31;34007;-70
2022/01/06 05:51:22;;;;;;;3.28;1.58;;;;;;;2.30;80.43;99805.28;5589361;31;34778;-70
2022/01/06 05:54:25;;;;;;;2.97;1.35;;;;;;;2.29;80.36;99793.97;5590938;31;34297;-70
2022/01/06 05:57:28;;;;;;;4.40;1.77;;;;;;;2.35;80.63;99796.06;5590600;31;34031;-69
2022/01/06 06:00:31;;;;;;;3.55;1.50;;;;;;;2.38;80.56;99797.59;5590960;31;33604;-69
2022/01/06 06:03:35;;;;;;;4.47;1.77;;;;;;;2.25;81.57;99792.56;5590750;31;34076;-69
2022/01/06 06:06:38;;;;;;;3.67;1.92;;;;;;;2.31;80.72;99799.91;5590080;31;33885;-72
2022/01/06 06:09:40;;;;;;;5.57;1.70;;;;;;;2.31;80.60;99799.91;5590840;31;33900;-69
2022/01/06 06:12:43;;;;;;;5.85;2.17;;;;;;;2.27;80.80;99811.63;5591836;31;35420;-69
2022/01/06 06:15:49;;;;;;;5.75;2.08;;;;;;;2.28;81.38;99812.41;5590627;31;34532;-68
2022/01/06 06:18:52;;;;;;;7.47;2.30;;;;;;;2.23;81.86;99810.19;5590584;31;34638;-70
2022/01/06 06:21:57;;;;;;;3.70;1.73;;;;;;;2.23;81.61;99817.22;5589821;31;34778;-70
2022/01/06 06:24:59;;;;;;;6.75;2.00;;;;;;;2.29;81.28;99806.22;5590637;31;34607;-69
2022/01/06 06:28:05;;;;;;;4.87;1.83;;;;;;;2.32;81.39;99824.31;5590736;31;33951;-69
2022/01/06 06:31:08;;;;;;;5.45;1.73;;;;;;;2.35;81.63;99826.66;5590218;31;34714;-71
2022/01/06 06:34:11;;;;;;;4.93;2.10;;;;;;;2.32;81.03;99837.41;5590653;31;35275;-69
2022/01/06 06:37:14;;;;;;;6.20;2.03;;;;;;;2.38;80.79;99842.09;5590101;31;33983;-69
2022/01/06 06:40:19;;;;;;;5.12;2.08;;;;;;;2.31;81.46;99840.97;5589998;31;35190;-70
2022/01/06 06:43:21;;;;;;;7.28;2.30;;;;;;;2.30;81.43;99839.28;5590062;31;33927;-69
2022/01/06 06:46:25;;;;;;;5.45;2.08;;;;;;;2.32;82.29;99850.47;5590367;31;34686;-70
2022/01/06 06:49:29;;;;;;;4.22;1.95;;;;;;;2.34;81.98;99843.31;5590521;31;33990;-70
2022/01/06 06:52:31;;;;;;;7.43;2.47;;;;;;;2.35;81.85;99858.91;5590297;31;34110;-69
2022/01/06 06:55:34;;;;;;;7.55;2.00;;;;;;;2.35;81.91;99855.44;5590252;31;33978;-70
2022/01/06 06:58:37;;;;;;;4.70;2.00;;;;;;;2.41;81.89;99854.94;5590263;31;33985;-69
2022/01/06 07:01:39;;;;;;;5.15;2.20;;;;;;;2.41;82.22;99857.56;5589342;31;34311;-70
2022/01/06 07:04:42;;;;;;;4.80;2.10;;;;;;;2.34;82.54;99852.00;5590043;31;34611;-69
2022/01/06 07:07:46;;;;;;;7.85;2.45;;;;;;;2.37;82.83;99856.16;5589236;31;35265;-69
2022/01/06 07:10:49;;;;;;;7.65;2.22;;;;;;;2.39;82.66;99865.53;5590191;31;33918;-70
2022/01/06 07:13:52;;;;;;;7.95;2.30;;;;;;;2.39;83.00;99878.63;5590222;31;34270;-70
2022/01/06 07:16:55;;;;;;;7.55;2.65;;;;;;;2.47;82.71;99889.28;5589972;31;33913;-70
2022/01/06 07:19:57;;;;;;;8.02;2.62;;;;;;;2.42;82.90;99880.97;5589844;31;34849;-70
2022/01/06 07:23:00;;;;;;;7.43;2.22;;;;;;;2.43;82.59;99887.88;5589635;31;34879;-69
2022/01/06 07:26:02;;;;;;;6.10;2.20;;;;;;;2.50;82.97;99901.28;5590095;31;34451;-70
2022/01/06 07:29:05;;;;;;;5.15;2.37;;;;;;;2.51;83.07;99905.56;5589086;31;33959;-69
2022/01/06 07:32:08;;;;;;;6.70;2.03;;;;;;;2.53;82.92;99906.25;5589667;31;34688;-70
2022/01/06 07:35:11;;;;;;;8.90;2.75;;;;;;;2.62;82.11;99919.41;5589524;31;33969;-70
2022/01/06 07:38:14;;;;;;;6.68;2.53;;;;;;;2.55;82.65;99920.91;5589648;31;33958;-70
2022/01/06 07:41:17;;;;;;;6.18;2.22;;;;;;;2.65;81.87;99926.19;5589441;31;34456;-70
2022/01/06 07:44:20;;;;;;;4.80;1.90;;;;;;;2.68;82.34;99928.53;5589642;31;34068;-69
2022/01/06 07:47:22;;;;;;;7.00;2.35;;;;;;;2.69;81.96;99929.38;5589698;31;35248;-69
2022/01/06 07:50:32;;;;;;;7.82;2.50;;;;;;;2.79;81.79;99941.59;5589902;31;34014;-69
2022/01/06 07:53:35;;;;;;;7.68;2.65;;;;;;;2.89;81.11;99947.72;5589673;31;34744;-70
2022/01/06 07:56:38;;;;;;;8.88;3.05;;;;;;;2.91;81.20;99950.19;5589565;31;33921;-69
2022/01/06 07:59:41;;;;;;;6.82;2.60;;;;;;;2.96;81.50;99956.69;5589535;31;33932;-69
2022/01/06 08:02:44;;;;;;;7.35;2.60;;;;;;;2.85;81.53;99975.12;5588756;31;34596;-69
2022/01/06 08:05:48;;;;;;;7.03;2.22;;;;;;;2.97;81.65;99984.56;5590055;31;33972;-69
2022/01/06 08:08:53;;;;;;;8.50;2.75;;;;;;;3.00;81.21;99986.13;5589671;31;33946;-69
2022/01/06 08:11:57;;;;;;;6.47;2.33;;;;;;;3.10;81.11;99991.41;5588920;31;34753;-69
2022/01/06 08:15:00;;;;;;;9.95;3.78;;;;;;;3.05;81.81;100007.50;5589384;31;34637;-68
2022/01/06 08:18:03;;;;;;;5.82;2.80;;;;;;;3.15;80.73;99997.91;5589592;31;34033;-68
2022/01/06 08:21:06;;;;;;;7.28;2.62;;;;;;;3.28;80.85;100006.41;5589633;31;34196;-68
2022/01/06 08:24:09;;;;;;;8.90;2.55;;;;;;;3.57;79.63;100001.28;5589466;31;34903;-68
2022/01/06 08:27:12;;;;;;;6.07;2.45;;;;;;;3.67;77.86;100015.25;5589309;31;34049;-68
2022/01/06 08:30:14;;;;;;;5.72;2.60;;;;;;;3.53;78.67;100007.75;5589741;31;33956;-68
2022/01/06 08:33:17;;;;;;;8.43;1.87;;;;;;;3.42;78.97;100013.09;5589534;31;34076;-68
2022/01/06 08:36:20;;;;;;;6.72;1.85;;;;;;;3.50;78.89;100015.88;5589570;31;34037;-68
2022/01/06 08:39:23;;;;;;;6.47;2.00;;;;;;;3.40;79.35;100015.00;5588886;31;34731;-68
2022/01/06 08:42:26;;;;;;;6.22;2.35;;;;;;;3.49;79.57;100011.59;5588993;31;34119;-68
2022/01/06 08:45:30;;;;;;;10.55;2.62;;;;;;;3.53;79.83;100028.75;5588309;31;33914;-68
2022/01/06 08:48:33;;;;;;;4.55;2.10;;;;;;;3.52;79.09;100042.81;5589273;31;34727;-69
2022/01/06 08:51:35;;;;;;;4.55;2.05;;;;;;;3.68;78.50;100043.13;5589536;31;33895;-68
2022/01/06 08:54:38;;;;;;;10.75;2.60;;;;;;;3.63;77.51;100047.94;5589276;31;34197;-69
2022/01/06 08:57:41;;;;;;;6.82;2.00;;;;;;;3.47;78.44;100052.84;5589118;31;34698;-68
2022/01/06 09:00:48;;;;;;;6.95;2.08;;;;;;;3.43;79.06;100051.47;5588402;31;34012;-68
2022/01/06 09:03:51;;;;;;;4.28;1.92;;;;;;;3.38;79.22;100053.66;5589134;31;33949;-68
2022/01/06 09:06:54;;;;;;;5.80;2.05;;;;;;;3.46;78.99;100065.13;5589361;31;34615;-68
2022/01/06 09:09:56;;;;;;;9.15;2.20;;;;;;;3.49;78.92;100058.78;5588917;31;34290;-69
2022/01/06 09:13:04;;;;;;;5.22;2.10;;;;;;;3.60;78.50;100061.34;5588127;31;34033;-68
2022/01/06 09:16:08;;;;;;;12.52;2.40;;;;;;;3.57;78.00;100069.47;5588135;31;34632;-68
2022/01/06 09:19:11;;;;;;;6.55;2.22;;;;;;;3.55;78.72;100068.75;5588674;31;33938;-68
2022/01/06 09:22:14;;;;;;;4.60;1.83;;;;;;;3.66;78.63;100068.69;5588955;31;33993;-68
2022/01/06 09:25:17;;;;;;;8.30;2.30;;;;;;;3.64;78.65;100067.13;5588733;31;34099;-68
2022/01/06 09:28:19;;;;;;;6.95;1.92;;;;;;;3.77;77.46;100079.09;5590921;31;34055;-68
2022/01/06 09:31:22;;;;;;;5.40;2.33;;;;;;;3.63;78.18;100065.50;5591506;31;34106;-68
2022/01/06 09:34:25;;;;;;;5.62;1.90;;;;;;;3.67;77.57;100059.03;5590252;31;34501;-68
2022/01/06 09:37:28;;;;;;;7.57;1.90;;;;;;;3.72;77.39;100062.94;5590173;31;34315;-69
2022/01/06 09:40:31;;;;;;;5.05;2.00;;;;;;;3.61;77.89;100046.44;5590973;31;33913;-68
2022/01/06 09:43:35;;;;;;;5.30;2.00;;;;;;;3.68;77.97;100051.00;5590691;31;33925;-69
2022/01/06 09:46:38;;;;;;;8.75;2.30;;;;;;;3.65;77.80;100051.28;5590898;31;33919;-66
2022/01/06 09:49:44;;;;;;;4.32;1.62;;;;;;;3.85;77.84;100054.81;5590760;31;33982;-66
2022/01/06 09:52:47;;;;;;;7.22;2.00;;;;;;;3.84;77.27;100063.63;5590714;31;34022;-68
2022/01/06 09:55:50;;;;;;;6.20;2.08;;;;;;;4.04;76.64;100059.28;5590120;31;34659;-66
2022/01/06 09:58:54;;;;;;;6.32;1.70;;;;;;;3.96;76.91;100065.22;5589986;31;33975;-69
2022/01/06 10:01:58;;;;;;;3.85;1.62;;;;;;;3.93;77.04;100065.47;5591032;31;34297;-70
2022/01/06 10:05:03;;;;;;;4.40;1.70;;;;;;;4.01;76.04;100060.41;5590582;31;34062;-67
2022/01/06 10:08:06;;;;;;;5.60;1.40;;;;;;;4.25;75.28;100062.66;5590697;31;33914;-67
2022/01/06 10:11:14;;;;;;;4.45;1.50;;;;;;;4.28;74.19;100071.09;5589875;31;32304;-69
2022/01/06 10:14:20;;;;;;;4.25;1.65;;;;;;;4.36;74.58;100073.88;5590547;31;33989;-67
2022/01/06 10:17:32;;;;;;;4.20;1.30;;;;;;;4.42;73.63;100067.25;5590698;31;33969;-69
2022/01/06 10:20:35;;;;;;;4.50;1.37;;;;;;;4.77;72.64;100070.19;5590524;31;35214;-67
2022/01/06 10:23:38;;;;;;;5.55;1.17;;;;;;;4.80;72.53;100083.03;5590466;31;33918;-68
2022/01/06 10:26:52;;;;;;;5.85;1.85;;;;;;;5.01;71.14;100079.44;5590512;31;34266;-67
2022/01/06 10:29:55;;;;;;;3.37;1.12;;;;;;;4.87;71.56;100091.22;5590413;31;34521;-68
2022/01/06 10:32:58;;;;;;;4.47;1.50;;;;;;;5.05;70.88;100081.66;5590474;31;34295;-69
2022/01/06 10:36:07;;;;;;;14.75;1.50;;;;;;;5.23;70.00;100097.53;5589898;31;35124;-69
2022/01/06 10:39:09;;;;;;;7.50;1.90;;;;;;;5.02;70.68;100108.22;5590123;31;34631;-66
2022/01/06 10:42:15;;;;;;;5.45;1.52;;;;;;;5.11;71.29;100102.13;5589645;31;33981;-68
2022/01/06 10:45:25;;;;;;;7.30;1.60;;;;;;;5.04;71.01;100106.28;5577759;31;34107;-68
2022/01/06 10:48:28;;;;;;;3.80;1.37;;;;;;;5.14;71.01;100108.91;5590258;31;34591;-68
2022/01/06 10:51:51;;;;;;;6.85;1.87;;;;;;;5.22;70.81;100109.88;5590393;31;34003;-66
2022/01/06 10:54:53;;;;;;;3.92;1.55;;;;;;;5.35;70.41;100106.94;5590360;31;34623;-68
2022/01/06 10:57:57;;;;;;;5.47;1.60;;;;;;;5.46;69.87;100105.97;5590361;31;34276;-68
2022/01/06 11:01:03;;;;;;;4.00;1.40;;;;;;;5.54;70.07;100104.28;5590504;31;34561;-68
2022/01/06 11:04:06;;;;;;;5.53;1.62;;;;;;;5.56;69.81;100112.03;5590093;31;34717;-68
2022/01/06 11:07:10;;;;;;;3.65;1.60;;;;;;;5.34;71.10;100114.97;5590323;31;34126;-68
2022/01/06 11:10:15;;;;;;;5.30;1.67;;;;;;;5.10;72.36;100115.41;5590262;31;34058;-68
2022/01/06 11:13:18;;;;;;;7.68;1.60;;;;;;;5.05;72.15;100112.38;5590046;31;33919;-68
2022/01/06 11:16:21;;;;;;;6.68;1.37;;;;;;;4.97;72.64;100112.25;5589131;31;35182;-68
2022/01/06 11:19:27;;;;;;;5.10;1.40;;;;;;;4.78;73.96;100111.28;5590193;31;34100;-70
2022/01/06 11:22:30;;;;;;;5.57;1.60;;;;;;;4.85;72.59;100102.81;5590021;31;34666;-68
2022/01/06 11:25:37;;;;;;;5.82;1.80;;;;;;;4.93;73.17;100110.84;5590312;31;33795;-69
2022/01/06 11:28:41;;;;;;;3.60;1.52;;;;;;;5.04;73.31;100127.31;5590127;31;34126;-68
2022/01/06 11:31:44;;;;;;;3.92;1.50;;;;;;;4.89;73.46;100128.69;5589186;31;34082;-68
2022/01/06 11:34:50;;;;;;;4.12;1.55;;;;;;;4.81;73.83;100131.19;5589856;31;34280;-68
2022/01/06 11:37:56;;;;;;;4.18;1.73;;;;;;;4.87;74.19;100133.25;5590525;31;33959;-69
2022/01/06 11:41:10;;;;;;;5.78;1.58;;;;;;;4.86;74.59;100125.50;5589632;31;33986;-68
2022/01/06 11:44:26;;;;;;;5.07;1.62;;;;;;;4.95;73.61;100135.19;5589621;31;34596;-69
2022/01/06 11:47:34;;;;;;;5.50;1.80;;;;;;;4.92;73.87;100138.94;5589484;31;33927;-69
2022/01/06 11:50:40;;;;;;;5.97;1.92;;;;;;;4.89;74.95;100138.41;5588812;31;34664;-69
2022/01/06 11:53:43;;;;;;;4.25;1.67;;;;;;;4.95;73.96;100145.72;5590132;31;35172;-69
2022/01/06 11:56:49;;;;;;;5.15;2.08;;;;;;;4.77;74.37;100146.41;5589531;31;34325;-69
2022/01/06 11:59:51;;;;;;;5.87;2.25;;;;;;;4.93;73.89;100147.66;5588903;31;34106;-69
2022/01/06 12:02:56;;;;;;;6.12;1.62;;;;;;;5.04;73.54;100145.72;5589639;31;34756;-69
2022/01/06 12:05:59;;;;;;;6.10;1.80;;;;;;;4.87;74.14;100151.66;5589534;31;33905;-69
2022/01/06 12:09:02;;;;;;;4.28;1.83;;;;;;;5.01;73.29;100138.13;5590057;31;34019;-69
2022/01/06 12:12:10;;;;;;;5.12;1.67;;;;;;;4.96;73.03;100139.50;5589696;31;34837;-68
2022/01/06 12:15:15;;;;;;;4.35;1.75;;;;;;;5.14;71.80;100130.75;5589528;31;34177;-68
2022/01/06 12:18:29;;;;;;;4.18;1.58;;;;;;;5.25;71.54;100140.31;5588682;31;33891;-70
2022/01/06 12:21:31;;;;;;;7.55;1.55;;;;;;;5.33;71.42;100129.09;5590126;31;33911;-68
2022/01/06 12:24:34;;;;;;;5.10;2.05;;;;;;;5.19;71.12;100138.25;5590660;31;34711;-69
2022/01/06 12:27:46;;;;;;;4.68;1.75;;;;;;;5.32;70.68;100143.22;5589331;31;34307;-68
2022/01/06 12:30:49;;;;;;;5.35;1.90;;;;;;;5.50;69.68;100145.00;5589414;31;35319;-69
2022/01/06 12:33:58;;;;;;;5.22;1.55;;;;;;;5.44;69.42;100142.09;5588623;31;33773;-68
2022/01/06 12:37:01;;;;;;;4.10;2.15;;;;;;;5.73;69.51;100157.81;5589455;31;34671;-69
2022/01/06 12:40:04;;;;;;;4.60;1.60;;;;;;;5.66;69.53;100162.84;5589185;31;33994;-69
2022/01/06 12:43:22;;;;;;;4.28;1.60;;;;;;;6.21;67.77;100166.44;5588597;31;34019;-70
2022/01/06 12:46:34;;;;;;;6.68;2.05;;;;;;;6.12;67.00;100180.47;5589209;31;34397;-69
2022/01/06 12:49:40;;;;;;;5.20;2.00;;;;;;;6.05;67.75;100174.94;5589293;31;33912;-67
2022/01/06 12:52:46;;;;;;;7.10;1.90;;;;;;;5.86;68.26;100180.22;5588292;31;34356;-68
2022/01/06 12:55:50;;;;;;;4.05;1.70;;;;;;;5.97;67.67;100180.09;5589210;31;33853;-69
2022/01/06 12:58:55;;;;;;;4.53;1.40;;;;;;;5.48;69.05;100190.81;5589169;31;33917;-68
2022/01/06 13:01:59;;;;;;;4.95;1.80;;;;;;;5.38;69.08;100197.88;5589005;31;34194;-68
2022/01/06 13:05:03;;;;;;;3.80;1.50;;;;;;;5.54;68.96;100196.37;5588288;31;34058;-68
2022/01/06 13:08:07;;;;;;;7.03;1.95;;;;;;;5.48;69.89;100194.28;5588237;31;35302;-68
2022/01/06 13:11:09;;;;;;;3.65;1.67;;;;;;;5.67;69.07;100198.69;5589376;31;33963;-68
2022/01/06 13:14:25;;;;;;;3.28;1.65;;;;;;;5.62;69.62;100201.75;5588980;31;33890;-69
2022/01/06 13:17:31;;;;;;;5.37;1.50;;;;;;;5.61;69.48;100212.44;5588766;31;34725;-68
2022/01/06 13:20:40;;;;;;;5.45;1.67;;;;;;;5.67;69.30;100204.78;5588660;31;34227;-68
2022/01/06 13:23:42;;;;;;;5.93;1.58;;;;;;;5.67;69.66;100207.41;5588697;31;33927;-68
2022/01/06 13:26:55;;;;;;;5.53;1.85;;;;;;;6.06;67.90;100204.75;5588066;31;34645;-67
2022/01/06 13:29:57;;;;;;;3.95;1.62;;;;;;;5.97;68.13;100213.50;5588644;31;33948;-68
2022/01/06 13:33:09;;;;;;;3.75;1.50;;;;;;;5.77;68.76;100196.03;5588531;31;34255;-68
2022/01/06 13:36:11;;;;;;;3.87;1.50;;;;;;;5.69;69.02;100208.12;5588605;31;34585;-68
2022/01/06 13:39:15;;;;;;;5.72;1.92;;;;;;;5.72;68.17;100216.69;5588241;31;34571;-68
2022/01/06 13:42:31;;;;;;;4.05;1.67;;;;;;;5.66;68.56;100212.84;5588410;31;34140;-68
2022/01/06 13:45:37;;;;;;;4.72;1.60;;;;;;;5.61;68.52;100215.91;5588012;31;34614;-67
2022/01/06 13:48:46;;;;;;;3.45;1.60;;;;;;;5.60;67.60;100216.87;5587954;31;34678;-66
2022/01/06 13:51:49;;;;;;;4.20;1.30;;;;;;;5.46;68.44;100226.97;5588626;31;34016;-66
2022/01/06 13:54:53;;;;;;;4.82;1.52;;;;;;;5.32;68.34;100238.75;5588205;31;34019;-66
2022/01/06 13:57:56;;;;;;;3.22;1.23;;;;;;;5.22;68.54;100249.25;5588261;31;34107;-66
2022/01/06 14:01:02;;;;;;;4.80;1.55;;;;;;;5.08;69.36;100246.19;5588414;31;33964;-65
2022/01/06 14:04:14;;;;;;;3.85;1.52;;;;;;;5.19;69.81;100249.53;5587938;31;34876;-66
2022/01/06 14:07:17;;;;;;;5.47;1.50;;;;;;;5.21;68.57;100249.38;5587788;31;35168;-66
2022/01/06 14:10:19;;;;;;;4.65;1.40;;;;;;;5.05;69.19;100249.91;5587859;31;34614;-67
2022/01/06 14:13:25;;;;;;;5.62;1.60;;;;;;;5.02;69.60;100262.50;5589572;31;35208;-67
2022/01/06 14:16:40;;;;;;;4.90;1.65;;;;;;;4.93;69.29;100271.22;5590826;31;33974;-67
2022/01/06 14:19:43;;;;;;;4.07;1.35;;;;;;;4.86;69.08;100265.62;5589803;31;34046;-67
2022/01/06 14:22:46;;;;;;;2.75;1.33;;;;;;;4.96;68.14;100269.12;5590661;31;34616;-67
2022/01/06 14:25:48;;;;;;;6.03;1.70;;;;;;;5.03;68.01;100272.06;5590495;31;33887;-68
2022/01/06 14:28:54;;;;;;;2.65;1.20;;;;;;;4.92;68.80;100280.87;5590576;31;35271;-67
2022/01/06 14:31:57;;;;;;;6.32;1.60;;;;;;;4.95;68.58;100277.13;5590505;31;34035;-68
2022/01/06 14:35:01;;;;;;;3.70;1.40;;;;;;;4.96;68.07;100287.53;5590154;31;35601;-66
2022/01/06 14:38:04;;;;;;;3.15;1.30;;;;;;;4.94;68.47;100286.81;5590239;31;34265;-66
2022/01/06 14:41:09;;;;;;;4.37;1.35;;;;;;;4.86;68.59;100286.66;5590242;31;33965;-66